sensor_id;sensor_type;location;lat;lon;timestamp;P1;durP1;ratioP1;P2;durP2;ratioP2
16099;SDS011;8154;50.830;12.082;2024-03-02T00:01:44;5.25;;;2.80;;
16099;SDS011;8154;50.830;12.082;2024-03-02T00:04:27;4.85;;;2.75;;
16099;SDS011;8154;50.830;12.082;2024-03-02T00:06:53;5.15;;;2.67;;
16099;SDS011;8154;50.830;12.082;2024-03-02T00:09:42;4.93;;;2.63;;
16099;SDS011;8154;50.830;12.082;2024-03-02T00:12:09;5.00;;;2.50;;
16099;SDS011;8154;50.830;12.082;2024-03-02T00:14:44;4.55;;;2.40;;
16099;SDS011;8154;50.830;12.082;2024-03-02T00:17:16;4.40;;;2.50;;
16099;SDS011;8154;50.830;12.082;2024-03-02T00:19:54;5.13;;;2.50;;
16099;SDS011;8154;50.830;12.082;2024-03-02T00:22:20;5.40;;;2.60;;
16099;SDS011;8154;50.830;12.082;2024-03-02T00:24:47;4.97;;;2.87;;
16099;SDS011;8154;50.830;12.082;2024-03-02T00:27:13;5.47;;;2.72;;
16099;SDS011;8154;50.830;12.082;2024-03-02T00:29:41;5.50;;;2.65;;
16099;SDS011;8154;50.830;12.082;2024-03-02T00:32:13;4.97;;;2.63;;
16099;SDS011;8154;50.830;12.082;2024-03-02T00:34:41;5.40;;;2.78;;
16099;SDS011;8154;50.830;12.082;2024-03-02T00:37:10;5.50;;;2.73;;
16099;SDS011;8154;50.830;12.082;2024-03-02T00:39:40;5.20;;;2.70;;
16099;SDS011;8154;50.830;12.082;2024-03-02T00:42:06;4.80;;;2.45;;
16099;SDS011;8154;50.830;12.082;2024-03-02T00:44:32;5.35;;;2.97;;
16099;SDS011;8154;50.830;12.082;2024-03-02T00:47:01;4.70;;;2.70;;
16099;SDS011;8154;50.830;12.082;2024-03-02T00:49:27;4.40;;;2.20;;
16099;SDS011;8154;50.830;12.082;2024-03-02T00:51:54;5.10;;;2.80;;
16099;SDS011;8154;50.830;12.082;2024-03-02T00:54:25;4.68;;;2.50;;
16099;SDS011;8154;50.830;12.082;2024-03-02T00:56:54;5.45;;;2.72;;
16099;SDS011;8154;50.830;12.082;2024-03-02T00:59:24;4.85;;;2.63;;
16099;SDS011;8154;50.830;12.082;2024-03-02T01:01:53;5.30;;;2.77;;
16099;SDS011;8154;50.830;12.082;2024-03-02T01:04:19;4.75;;;2.60;;
16099;SDS011;8154;50.830;12.082;2024-03-02T01:06:45;4.95;;;2.50;;
16099;SDS011;8154;50.830;12.082;2024-03-02T01:09:11;4.90;;;2.63;;
16099;SDS011;8154;50.830;12.082;2024-03-02T01:11:38;4.13;;;2.30;;
16099;SDS011;8154;50.830;12.082;2024-03-02T01:14:05;5.05;;;2.67;;
16099;SDS011;8154;50.830;12.082;2024-03-02T01:16:34;4.63;;;2.40;;
16099;SDS011;8154;50.830;12.082;2024-03-02T01:19:02;5.35;;;2.53;;
16099;SDS011;8154;50.830;12.082;2024-03-02T01:21:30;5.30;;;2.65;;
16099;SDS011;8154;50.830;12.082;2024-03-02T01:23:59;4.97;;;2.77;;
16099;SDS011;8154;50.830;12.082;2024-03-02T01:26:25;4.55;;;2.33;;
16099;SDS011;8154;50.830;12.082;2024-03-02T01:28:51;5.13;;;2.70;;
16099;SDS011;8154;50.830;12.082;2024-03-02T01:31:37;4.68;;;2.50;;
16099;SDS011;8154;50.830;12.082;2024-03-02T01:34:03;4.70;;;2.60;;
16099;SDS011;8154;50.830;12.082;2024-03-02T01:36:48;4.90;;;2.60;;
16099;SDS011;8154;50.830;12.082;2024-03-02T01:39:17;4.18;;;2.30;;
16099;SDS011;8154;50.830;12.082;2024-03-02T01:41:46;4.70;;;2.47;;
16099;SDS011;8154;50.830;12.082;2024-03-02T01:44:15;4.95;;;2.80;;
16099;SDS011;8154;50.830;12.082;2024-03-02T01:46:44;4.80;;;2.50;;
16099;SDS011;8154;50.830;12.082;2024-03-02T01:49:10;5.43;;;2.43;;
16099;SDS011;8154;50.830;12.082;2024-03-02T01:51:55;5.13;;;2.47;;
16099;SDS011;8154;50.830;12.082;2024-03-02T01:54:22;5.35;;;2.60;;
16099;SDS011;8154;50.830;12.082;2024-03-02T01:56:48;5.03;;;2.72;;
16099;SDS011;8154;50.830;12.082;2024-03-02T01:59:16;4.75;;;2.70;;
16099;SDS011;8154;50.830;12.082;2024-03-02T02:01:44;5.27;;;2.70;;
16099;SDS011;8154;50.830;12.082;2024-03-02T02:04:13;4.78;;;2.40;;
16099;SDS011;8154;50.830;12.082;2024-03-02T02:06:41;4.93;;;2.70;;
16099;SDS011;8154;50.830;12.082;2024-03-02T02:09:10;4.35;;;2.35;;
16099;SDS011;8154;50.830;12.082;2024-03-02T02:11:36;4.40;;;2.40;;
16099;SDS011;8154;50.830;12.082;2024-03-02T02:14:02;4.90;;;2.73;;
16099;SDS011;8154;50.830;12.082;2024-03-02T02:16:28;4.80;;;2.35;;
16099;SDS011;8154;50.830;12.082;2024-03-02T02:19:11;5.05;;;2.55;;
16099;SDS011;8154;50.830;12.082;2024-03-02T02:21:47;5.07;;;2.67;;
16099;SDS011;8154;50.830;12.082;2024-03-02T02:24:16;5.18;;;2.75;;
16099;SDS011;8154;50.830;12.082;2024-03-02T02:26:45;4.43;;;2.50;;
16099;SDS011;8154;50.830;12.082;2024-03-02T02:29:11;4.95;;;2.60;;
16099;SDS011;8154;50.830;12.082;2024-03-02T02:31:37;4.80;;;2.50;;
16099;SDS011;8154;50.830;12.082;2024-03-02T02:34:07;4.75;;;2.53;;
16099;SDS011;8154;50.830;12.082;2024-03-02T02:36:36;5.00;;;2.60;;
16099;SDS011;8154;50.830;12.082;2024-03-02T02:39:23;4.90;;;2.45;;
16099;SDS011;8154;50.830;12.082;2024-03-02T02:41:49;4.90;;;2.33;;
16099;SDS011;8154;50.830;12.082;2024-03-02T02:44:24;4.97;;;2.55;;
16099;SDS011;8154;50.830;12.082;2024-03-02T02:46:52;5.10;;;2.80;;
16099;SDS011;8154;50.830;12.082;2024-03-02T02:49:21;4.87;;;2.43;;
16099;SDS011;8154;50.830;12.082;2024-03-02T02:51:49;5.28;;;2.65;;
16099;SDS011;8154;50.830;12.082;2024-03-02T02:54:15;4.47;;;2.60;;
16099;SDS011;8154;50.830;12.082;2024-03-02T02:56:42;4.80;;;2.38;;
16099;SDS011;8154;50.830;12.082;2024-03-02T02:59:08;4.82;;;2.40;;
16099;SDS011;8154;50.830;12.082;2024-03-02T03:01:34;4.97;;;2.53;;
16099;SDS011;8154;50.830;12.082;2024-03-02T03:04:09;4.93;;;2.60;;
16099;SDS011;8154;50.830;12.082;2024-03-02T03:06:37;4.95;;;2.53;;
16099;SDS011;8154;50.830;12.082;2024-03-02T03:09:06;5.30;;;2.60;;
16099;SDS011;8154;50.830;12.082;2024-03-02T03:11:35;5.30;;;2.60;;
16099;SDS011;8154;50.830;12.082;2024-03-02T03:14:02;4.33;;;2.40;;
16099;SDS011;8154;50.830;12.082;2024-03-02T03:16:28;4.45;;;2.55;;
16099;SDS011;8154;50.830;12.082;2024-03-02T03:18:54;4.90;;;2.35;;
16099;SDS011;8154;50.830;12.082;2024-03-02T03:21:20;4.78;;;2.47;;
16099;SDS011;8154;50.830;12.082;2024-03-02T03:23:46;4.63;;;2.40;;
16099;SDS011;8154;50.830;12.082;2024-03-02T03:26:15;4.32;;;2.30;;
16099;SDS011;8154;50.830;12.082;2024-03-02T03:28:44;4.75;;;2.47;;
16099;SDS011;8154;50.830;12.082;2024-03-02T03:31:13;4.80;;;2.40;;
16099;SDS011;8154;50.830;12.082;2024-03-02T03:33:41;4.85;;;2.40;;
16099;SDS011;8154;50.830;12.082;2024-03-02T03:36:08;4.93;;;2.60;;
16099;SDS011;8154;50.830;12.082;2024-03-02T03:38:34;4.45;;;2.30;;
16099;SDS011;8154;50.830;12.082;2024-03-02T03:41:00;5.10;;;2.60;;
16099;SDS011;8154;50.830;12.082;2024-03-02T03:43:25;4.47;;;2.47;;
16099;SDS011;8154;50.830;12.082;2024-03-02T03:46:10;4.10;;;2.30;;
16099;SDS011;8154;50.830;12.082;2024-03-02T03:48:36;4.77;;;2.50;;
16099;SDS011;8154;50.830;12.082;2024-03-02T03:51:04;4.95;;;2.40;;
16099;SDS011;8154;50.830;12.082;2024-03-02T03:53:29;5.78;;;2.67;;
16099;SDS011;8154;50.830;12.082;2024-03-02T03:55:58;4.20;;;2.10;;
16099;SDS011;8154;50.830;12.082;2024-03-02T03:58:27;5.20;;;2.45;;
16099;SDS011;8154;50.830;12.082;2024-03-02T04:00:54;4.25;;;2.13;;
16099;SDS011;8154;50.830;12.082;2024-03-02T04:03:20;4.22;;;2.28;;
16099;SDS011;8154;50.830;12.082;2024-03-02T04:05:46;4.60;;;2.45;;
16099;SDS011;8154;50.830;12.082;2024-03-02T04:08:12;4.80;;;2.30;;
16099;SDS011;8154;50.830;12.082;2024-03-02T04:10:41;4.60;;;2.40;;
16099;SDS011;8154;50.830;12.082;2024-03-02T04:13:10;4.80;;;2.30;;
16099;SDS011;8154;50.830;12.082;2024-03-02T04:15:39;4.95;;;2.35;;
16099;SDS011;8154;50.830;12.082;2024-03-02T04:18:07;4.72;;;2.30;;
16099;SDS011;8154;50.830;12.082;2024-03-02T04:20:33;4.20;;;2.20;;
16099;SDS011;8154;50.830;12.082;2024-03-02T04:22:59;4.53;;;2.33;;
16099;SDS011;8154;50.830;12.082;2024-03-02T04:25:25;4.70;;;2.30;;
16099;SDS011;8154;50.830;12.082;2024-03-02T04:27:51;4.72;;;2.42;;
16099;SDS011;8154;50.830;12.082;2024-03-02T04:30:17;4.60;;;2.40;;
16099;SDS011;8154;50.830;12.082;2024-03-02T04:32:46;4.97;;;2.40;;
16099;SDS011;8154;50.830;12.082;2024-03-02T04:35:15;4.18;;;2.40;;
16099;SDS011;8154;50.830;12.082;2024-03-02T04:37:44;4.60;;;2.30;;
16099;SDS011;8154;50.830;12.082;2024-03-02T04:40:12;4.80;;;2.28;;
16099;SDS011;8154;50.830;12.082;2024-03-02T04:42:38;4.40;;;2.28;;
16099;SDS011;8154;50.830;12.082;2024-03-02T04:45:25;4.77;;;2.23;;
16099;SDS011;8154;50.830;12.082;2024-03-02T04:47:51;4.55;;;2.20;;
16099;SDS011;8154;50.830;12.082;2024-03-02T04:50:17;4.70;;;2.30;;
16099;SDS011;8154;50.830;12.082;2024-03-02T04:52:44;4.20;;;2.30;;
16099;SDS011;8154;50.830;12.082;2024-03-02T04:55:13;4.07;;;2.20;;
16099;SDS011;8154;50.830;12.082;2024-03-02T04:57:44;4.20;;;1.90;;
16099;SDS011;8154;50.830;12.082;2024-03-02T05:00:14;4.63;;;2.47;;
16099;SDS011;8154;50.830;12.082;2024-03-02T05:02:43;4.40;;;2.25;;
16099;SDS011;8154;50.830;12.082;2024-03-02T05:05:09;3.83;;;2.20;;
16099;SDS011;8154;50.830;12.082;2024-03-02T05:07:35;4.43;;;2.30;;
16099;SDS011;8154;50.830;12.082;2024-03-02T05:10:02;4.22;;;2.10;;
16099;SDS011;8154;50.830;12.082;2024-03-02T05:12:28;4.63;;;2.58;;
16099;SDS011;8154;50.830;12.082;2024-03-02T05:15:28;4.38;;;2.10;;
16099;SDS011;8154;50.830;12.082;2024-03-02T05:17:57;3.95;;;2.15;;
16099;SDS011;8154;50.830;12.082;2024-03-02T05:20:27;4.00;;;2.00;;
16099;SDS011;8154;50.830;12.082;2024-03-02T05:22:56;4.05;;;2.25;;
16099;SDS011;8154;50.830;12.082;2024-03-02T05:25:25;4.18;;;2.13;;
16099;SDS011;8154;50.830;12.082;2024-03-02T05:27:51;4.35;;;2.10;;
16099;SDS011;8154;50.830;12.082;2024-03-02T05:30:17;4.78;;;2.55;;
16099;SDS011;8154;50.830;12.082;2024-03-02T05:32:43;4.40;;;2.43;;
16099;SDS011;8154;50.830;12.082;2024-03-02T05:35:10;4.43;;;2.10;;
16099;SDS011;8154;50.830;12.082;2024-03-02T05:37:41;5.35;;;2.55;;
16099;SDS011;8154;50.830;12.082;2024-03-02T05:40:08;4.13;;;2.22;;
16099;SDS011;8154;50.830;12.082;2024-03-02T05:42:37;4.35;;;2.10;;
16099;SDS011;8154;50.830;12.082;2024-03-02T05:45:04;3.93;;;2.00;;
16099;SDS011;8154;50.830;12.082;2024-03-02T05:47:33;3.10;;;1.77;;
16099;SDS011;8154;50.830;12.082;2024-03-02T05:49:59;4.68;;;2.15;;
16099;SDS011;8154;50.830;12.082;2024-03-02T05:52:25;4.20;;;2.20;;
16099;SDS011;8154;50.830;12.082;2024-03-02T05:54:51;4.22;;;2.10;;
16099;SDS011;8154;50.830;12.082;2024-03-02T05:57:17;4.00;;;2.00;;
16099;SDS011;8154;50.830;12.082;2024-03-02T06:00:01;3.83;;;2.00;;
16099;SDS011;8154;50.830;12.082;2024-03-02T06:02:31;4.28;;;1.90;;
16099;SDS011;8154;50.830;12.082;2024-03-02T06:04:58;4.28;;;2.10;;
16099;SDS011;8154;50.830;12.082;2024-03-02T06:07:27;4.13;;;2.07;;
16099;SDS011;8154;50.830;12.082;2024-03-02T06:09:53;3.90;;;2.10;;
16099;SDS011;8154;50.830;12.082;2024-03-02T06:12:19;4.40;;;2.08;;
16099;SDS011;8154;50.830;12.082;2024-03-02T06:14:45;3.83;;;2.08;;
16099;SDS011;8154;50.830;12.082;2024-03-02T06:17:11;4.07;;;2.13;;
16099;SDS011;8154;50.830;12.082;2024-03-02T06:19:37;4.45;;;2.05;;
16099;SDS011;8154;50.830;12.082;2024-03-02T06:22:06;4.07;;;2.03;;
16099;SDS011;8154;50.830;12.082;2024-03-02T06:24:37;3.40;;;1.80;;
16099;SDS011;8154;50.830;12.082;2024-03-02T06:27:06;4.18;;;2.20;;
16099;SDS011;8154;50.830;12.082;2024-03-02T06:29:35;4.43;;;2.13;;
16099;SDS011;8154;50.830;12.082;2024-03-02T06:32:01;3.92;;;1.80;;
16099;SDS011;8154;50.830;12.082;2024-03-02T06:34:27;4.25;;;2.20;;
16099;SDS011;8154;50.830;12.082;2024-03-02T06:36:53;4.00;;;1.95;;
16099;SDS011;8154;50.830;12.082;2024-03-02T06:39:19;4.13;;;2.00;;
16099;SDS011;8154;50.830;12.082;2024-03-02T06:41:45;3.57;;;1.93;;
16099;SDS011;8154;50.830;12.082;2024-03-02T06:44:15;4.07;;;2.08;;
16099;SDS011;8154;50.830;12.082;2024-03-02T06:46:44;4.60;;;2.13;;
16099;SDS011;8154;50.830;12.082;2024-03-02T06:49:13;3.97;;;2.05;;
16099;SDS011;8154;50.830;12.082;2024-03-02T06:51:40;3.92;;;1.90;;
16099;SDS011;8154;50.830;12.082;2024-03-02T06:54:07;4.00;;;2.17;;
16099;SDS011;8154;50.830;12.082;2024-03-02T06:56:33;3.97;;;1.90;;
16099;SDS011;8154;50.830;12.082;2024-03-02T06:58:59;4.18;;;2.00;;
16099;SDS011;8154;50.830;12.082;2024-03-02T07:01:26;4.22;;;2.08;;
16099;SDS011;8154;50.830;12.082;2024-03-02T07:03:52;4.03;;;1.90;;
16099;SDS011;8154;50.830;12.082;2024-03-02T07:06:20;3.50;;;1.90;;
16099;SDS011;8154;50.830;12.082;2024-03-02T07:08:49;4.13;;;2.05;;
16099;SDS011;8154;50.830;12.082;2024-03-02T07:11:18;3.92;;;1.95;;
16099;SDS011;8154;50.830;12.082;2024-03-02T07:13:46;4.32;;;2.03;;
16099;SDS011;8154;50.830;12.082;2024-03-02T07:16:12;3.83;;;2.00;;
16099;SDS011;8154;50.830;12.082;2024-03-02T07:18:54;3.53;;;1.90;;
16099;SDS011;8154;50.830;12.082;2024-03-02T07:21:22;3.63;;;1.73;;
16099;SDS011;8154;50.830;12.082;2024-03-02T07:23:48;3.50;;;1.90;;
16099;SDS011;8154;50.830;12.082;2024-03-02T07:26:35;3.72;;;1.88;;
16099;SDS011;8154;50.830;12.082;2024-03-02T07:29:04;3.85;;;2.03;;
16099;SDS011;8154;50.830;12.082;2024-03-02T07:31:33;4.07;;;1.83;;
16099;SDS011;8154;50.830;12.082;2024-03-02T07:34:02;3.80;;;1.90;;
16099;SDS011;8154;50.830;12.082;2024-03-02T07:36:28;3.70;;;1.98;;
16099;SDS011;8154;50.830;12.082;2024-03-02T07:38:53;4.13;;;2.05;;
16099;SDS011;8154;50.830;12.082;2024-03-02T07:41:20;3.35;;;1.80;;
16099;SDS011;8154;50.830;12.082;2024-03-02T07:43:46;3.63;;;1.70;;
16099;SDS011;8154;50.830;12.082;2024-03-02T07:46:12;3.78;;;1.83;;
16099;SDS011;8154;50.830;12.082;2024-03-02T07:48:45;4.03;;;1.98;;
16099;SDS011;8154;50.830;12.082;2024-03-02T07:51:14;3.72;;;1.90;;
16099;SDS011;8154;50.830;12.082;2024-03-02T07:53:42;3.70;;;1.80;;
16099;SDS011;8154;50.830;12.082;2024-03-02T07:56:11;3.90;;;1.87;;
16099;SDS011;8154;50.830;12.082;2024-03-02T07:58:38;3.63;;;1.90;;
16099;SDS011;8154;50.830;12.082;2024-03-02T08:01:04;4.03;;;2.00;;
16099;SDS011;8154;50.830;12.082;2024-03-02T08:03:30;4.07;;;1.95;;
16099;SDS011;8154;50.830;12.082;2024-03-02T08:05:57;3.22;;;1.80;;
16099;SDS011;8154;50.830;12.082;2024-03-02T08:08:23;4.00;;;1.97;;
16099;SDS011;8154;50.830;12.082;2024-03-02T08:10:52;3.40;;;1.85;;
16099;SDS011;8154;50.830;12.082;2024-03-02T08:13:21;3.90;;;2.00;;
16099;SDS011;8154;50.830;12.082;2024-03-02T08:15:50;3.88;;;1.88;;
16099;SDS011;8154;50.830;12.082;2024-03-02T08:18:19;3.72;;;1.90;;
16099;SDS011;8154;50.830;12.082;2024-03-02T08:20:45;3.37;;;1.80;;
16099;SDS011;8154;50.830;12.082;2024-03-02T08:23:11;3.33;;;1.70;;
16099;SDS011;8154;50.830;12.082;2024-03-02T08:25:37;3.55;;;1.75;;
16099;SDS011;8154;50.830;12.082;2024-03-02T08:28:03;3.92;;;1.90;;
16099;SDS011;8154;50.830;12.082;2024-03-02T08:30:30;3.70;;;1.63;;
16099;SDS011;8154;50.830;12.082;2024-03-02T08:32:59;4.05;;;1.80;;
16099;SDS011;8154;50.830;12.082;2024-03-02T08:35:28;3.67;;;1.88;;
16099;SDS011;8154;50.830;12.082;2024-03-02T08:37:57;3.75;;;1.70;;
16099;SDS011;8154;50.830;12.082;2024-03-02T08:40:26;3.55;;;1.88;;
16099;SDS011;8154;50.830;12.082;2024-03-02T08:42:52;3.60;;;1.77;;
16099;SDS011;8154;50.830;12.082;2024-03-02T08:45:18;3.45;;;1.80;;
16099;SDS011;8154;50.830;12.082;2024-03-02T08:47:46;4.28;;;2.10;;
16099;SDS011;8154;50.830;12.082;2024-03-02T08:50:13;3.40;;;1.60;;
16099;SDS011;8154;50.830;12.082;2024-03-02T08:52:39;3.65;;;1.83;;
16099;SDS011;8154;50.830;12.082;2024-03-02T08:55:08;3.30;;;1.70;;
16099;SDS011;8154;50.830;12.082;2024-03-02T08:57:38;3.33;;;1.63;;
16099;SDS011;8154;50.830;12.082;2024-03-02T09:00:05;3.47;;;1.88;;
16099;SDS011;8154;50.830;12.082;2024-03-02T09:02:33;3.15;;;1.70;;
16099;SDS011;8154;50.830;12.082;2024-03-02T09:04:59;4.43;;;2.00;;
16099;SDS011;8154;50.830;12.082;2024-03-02T09:07:25;3.80;;;1.70;;
16099;SDS011;8154;50.830;12.082;2024-03-02T09:09:51;3.72;;;1.80;;
16099;SDS011;8154;50.830;12.082;2024-03-02T09:12:18;4.25;;;2.08;;
16099;SDS011;8154;50.830;12.082;2024-03-02T09:14:44;3.10;;;1.70;;
16099;SDS011;8154;50.830;12.082;2024-03-02T09:17:15;3.40;;;1.67;;
16099;SDS011;8154;50.830;12.082;2024-03-02T09:19:44;3.03;;;1.53;;
16099;SDS011;8154;50.830;12.082;2024-03-02T09:22:12;3.83;;;1.92;;
16099;SDS011;8154;50.830;12.082;2024-03-02T09:24:39;3.65;;;1.60;;
16099;SDS011;8154;50.830;12.082;2024-03-02T09:27:05;4.13;;;1.80;;
16099;SDS011;8154;50.830;12.082;2024-03-02T09:29:31;3.38;;;1.70;;
16099;SDS011;8154;50.830;12.082;2024-03-02T09:31:57;4.43;;;2.20;;
16099;SDS011;8154;50.830;12.082;2024-03-02T09:34:23;3.60;;;1.70;;
16099;SDS011;8154;50.830;12.082;2024-03-02T09:36:50;3.60;;;1.77;;
16099;SDS011;8154;50.830;12.082;2024-03-02T09:39:18;4.00;;;1.90;;
16099;SDS011;8154;50.830;12.082;2024-03-02T09:41:47;3.27;;;1.70;;
16099;SDS011;8154;50.830;12.082;2024-03-02T09:44:17;2.92;;;1.50;;
16099;SDS011;8154;50.830;12.082;2024-03-02T09:46:49;3.70;;;1.80;;
16099;SDS011;8154;50.830;12.082;2024-03-02T09:49:15;2.63;;;1.40;;
16099;SDS011;8154;50.830;12.082;2024-03-02T09:51:44;3.97;;;1.80;;
16099;SDS011;8154;50.830;12.082;2024-03-02T09:54:15;3.37;;;1.70;;
16099;SDS011;8154;50.830;12.082;2024-03-02T09:56:42;3.53;;;1.80;;
16099;SDS011;8154;50.830;12.082;2024-03-02T09:59:26;3.55;;;1.85;;
16099;SDS011;8154;50.830;12.082;2024-03-02T10:01:59;2.92;;;1.50;;
16099;SDS011;8154;50.830;12.082;2024-03-02T10:04:29;4.88;;;2.15;;
16099;SDS011;8154;50.830;12.082;2024-03-02T10:07:09;4.93;;;2.33;;
16099;SDS011;8154;50.830;12.082;2024-03-02T10:09:40;4.97;;;2.10;;
16099;SDS011;8154;50.830;12.082;2024-03-02T10:12:09;5.60;;;2.40;;
16099;SDS011;8154;50.830;12.082;2024-03-02T10:14:37;5.32;;;2.60;;
16099;SDS011;8154;50.830;12.082;2024-03-02T10:17:04;4.80;;;2.50;;
16099;SDS011;8154;50.830;12.082;2024-03-02T10:19:38;6.90;;;2.40;;
16099;SDS011;8154;50.830;12.082;2024-03-02T10:22:07;5.13;;;2.00;;
16099;SDS011;8154;50.830;12.082;2024-03-02T10:24:40;5.00;;;2.33;;
16099;SDS011;8154;50.830;12.082;2024-03-02T10:27:27;5.03;;;2.15;;
16099;SDS011;8154;50.830;12.082;2024-03-02T10:29:55;5.20;;;2.40;;
16099;SDS011;8154;50.830;12.082;2024-03-02T10:32:22;5.03;;;2.20;;
16099;SDS011;8154;50.830;12.082;2024-03-02T10:34:49;3.85;;;2.05;;
16099;SDS011;8154;50.830;12.082;2024-03-02T10:37:18;5.20;;;2.53;;
16099;SDS011;8154;50.830;12.082;2024-03-02T10:39:48;5.13;;;2.25;;
16099;SDS011;8154;50.830;12.082;2024-03-02T10:42:15;4.88;;;2.13;;
16099;SDS011;8154;50.830;12.082;2024-03-02T10:44:44;4.13;;;2.10;;
16099;SDS011;8154;50.830;12.082;2024-03-02T10:47:13;4.97;;;2.42;;
16099;SDS011;8154;50.830;12.082;2024-03-02T10:49:42;5.15;;;2.45;;
16099;SDS011;8154;50.830;12.082;2024-03-02T10:52:12;4.57;;;2.30;;
16099;SDS011;8154;50.830;12.082;2024-03-02T10:54:41;5.00;;;2.20;;
16099;SDS011;8154;50.830;12.082;2024-03-02T10:57:07;4.43;;;2.30;;
16099;SDS011;8154;50.830;12.082;2024-03-02T10:59:37;4.35;;;2.22;;
16099;SDS011;8154;50.830;12.082;2024-03-02T11:02:25;5.32;;;2.47;;
16099;SDS011;8154;50.830;12.082;2024-03-02T11:05:08;5.22;;;2.38;;
16099;SDS011;8154;50.830;12.082;2024-03-02T11:07:45;4.50;;;2.10;;
16099;SDS011;8154;50.830;12.082;2024-03-02T11:10:12;5.20;;;2.20;;
16099;SDS011;8154;50.830;12.082;2024-03-02T11:12:52;5.15;;;2.20;;
16099;SDS011;8154;50.830;12.082;2024-03-02T11:15:25;4.90;;;2.30;;
16099;SDS011;8154;50.830;12.082;2024-03-02T11:17:52;3.72;;;2.15;;
16099;SDS011;8154;50.830;12.082;2024-03-02T11:20:20;4.82;;;2.47;;
16099;SDS011;8154;50.830;12.082;2024-03-02T11:22:47;4.27;;;2.30;;
16099;SDS011;8154;50.830;12.082;2024-03-02T11:25:23;5.32;;;2.30;;
16099;SDS011;8154;50.830;12.082;2024-03-02T11:33:01;5.45;;;2.40;;
16099;SDS011;8154;50.830;12.082;2024-03-02T11:35:37;4.27;;;2.07;;
16099;SDS011;8154;50.830;12.082;2024-03-02T11:38:12;4.57;;;2.10;;
16099;SDS011;8154;50.830;12.082;2024-03-02T11:40:41;3.95;;;2.10;;
16099;SDS011;8154;50.830;12.082;2024-03-02T11:43:08;4.72;;;2.45;;
16099;SDS011;8154;50.830;12.082;2024-03-02T11:45:35;4.55;;;2.28;;
16099;SDS011;8154;50.830;12.082;2024-03-02T11:48:25;4.40;;;2.13;;
16099;SDS011;8154;50.830;12.082;2024-03-02T11:50:54;4.95;;;1.98;;
16099;SDS011;8154;50.830;12.082;2024-03-02T11:53:30;4.03;;;1.77;;
16099;SDS011;8154;50.830;12.082;2024-03-02T11:56:00;4.53;;;2.17;;
16099;SDS011;8154;50.830;12.082;2024-03-02T11:58:30;3.85;;;2.00;;
16099;SDS011;8154;50.830;12.082;2024-03-02T12:00:57;4.20;;;1.70;;
16099;SDS011;8154;50.830;12.082;2024-03-02T12:03:24;4.90;;;2.00;;
16099;SDS011;8154;50.830;12.082;2024-03-02T12:05:54;4.10;;;1.80;;
16099;SDS011;8154;50.830;12.082;2024-03-02T12:08:22;4.05;;;2.15;;
16099;SDS011;8154;50.830;12.082;2024-03-02T12:10:58;4.55;;;2.08;;
16099;SDS011;8154;50.830;12.082;2024-03-02T12:13:27;4.37;;;2.00;;
16099;SDS011;8154;50.830;12.082;2024-03-02T12:15:54;3.45;;;1.77;;
16099;SDS011;8154;50.830;12.082;2024-03-02T12:18:25;4.47;;;1.77;;
16099;SDS011;8154;50.830;12.082;2024-03-02T12:20:54;4.15;;;2.00;;
16099;SDS011;8154;50.830;12.082;2024-03-02T12:23:32;3.83;;;1.80;;
16099;SDS011;8154;50.830;12.082;2024-03-02T12:25:59;4.43;;;2.13;;
16099;SDS011;8154;50.830;12.082;2024-03-02T12:28:25;4.20;;;1.85;;
16099;SDS011;8154;50.830;12.082;2024-03-02T12:30:51;4.25;;;1.90;;
16099;SDS011;8154;50.830;12.082;2024-03-02T12:33:19;4.00;;;1.95;;
16099;SDS011;8154;50.830;12.082;2024-03-02T12:35:49;3.83;;;1.77;;
16099;SDS011;8154;50.830;12.082;2024-03-02T12:38:18;3.70;;;1.90;;
16099;SDS011;8154;50.830;12.082;2024-03-02T12:40:48;4.30;;;1.80;;
16099;SDS011;8154;50.830;12.082;2024-03-02T12:43:15;3.65;;;2.00;;
16099;SDS011;8154;50.830;12.082;2024-03-02T12:45:40;4.13;;;1.92;;
16099;SDS011;8154;50.830;12.082;2024-03-02T12:48:07;4.80;;;2.08;;
16099;SDS011;8154;50.830;12.082;2024-03-02T12:50:33;3.90;;;1.90;;
16099;SDS011;8154;50.830;12.082;2024-03-02T12:52:59;4.32;;;1.90;;
16099;SDS011;8154;50.830;12.082;2024-03-02T12:55:27;4.45;;;2.00;;
16099;SDS011;8154;50.830;12.082;2024-03-02T12:57:57;4.07;;;2.00;;
16099;SDS011;8154;50.830;12.082;2024-03-02T13:00:26;4.15;;;2.03;;
16099;SDS011;8154;50.830;12.082;2024-03-02T13:02:52;4.20;;;2.23;;
16099;SDS011;8154;50.830;12.082;2024-03-02T13:05:18;3.45;;;1.70;;
16099;SDS011;8154;50.830;12.082;2024-03-02T13:07:47;4.20;;;1.90;;
16099;SDS011;8154;50.830;12.082;2024-03-02T13:10:13;3.10;;;1.70;;
16099;SDS011;8154;50.830;12.082;2024-03-02T13:12:39;4.03;;;1.90;;
16099;SDS011;8154;50.830;12.082;2024-03-02T13:15:06;3.63;;;1.70;;
16099;SDS011;8154;50.830;12.082;2024-03-02T13:17:39;3.50;;;1.90;;
16099;SDS011;8154;50.830;12.082;2024-03-02T13:20:08;3.63;;;1.60;;
16099;SDS011;8154;50.830;12.082;2024-03-02T13:22:36;3.92;;;1.95;;
16099;SDS011;8154;50.830;12.082;2024-03-02T13:25:05;3.03;;;1.73;;
16099;SDS011;8154;50.830;12.082;2024-03-02T13:27:31;3.90;;;1.87;;
16099;SDS011;8154;50.830;12.082;2024-03-02T13:29:58;3.78;;;1.70;;
16099;SDS011;8154;50.830;12.082;2024-03-02T13:32:24;3.08;;;1.60;;
16099;SDS011;8154;50.830;12.082;2024-03-02T13:34:51;3.58;;;1.80;;
16099;SDS011;8154;50.830;12.082;2024-03-02T13:37:17;3.65;;;1.70;;
16099;SDS011;8154;50.830;12.082;2024-03-02T13:39:46;3.93;;;1.70;;
16099;SDS011;8154;50.830;12.082;2024-03-02T13:42:14;4.07;;;1.92;;
16099;SDS011;8154;50.830;12.082;2024-03-02T13:44:41;3.60;;;1.75;;
16099;SDS011;8154;50.830;12.082;2024-03-02T13:47:14;3.53;;;1.88;;
16099;SDS011;8154;50.830;12.082;2024-03-02T13:49:40;3.27;;;1.70;;
16099;SDS011;8154;50.830;12.082;2024-03-02T13:52:09;3.47;;;1.60;;
16099;SDS011;8154;50.830;12.082;2024-03-02T13:54:39;3.30;;;1.60;;
16099;SDS011;8154;50.830;12.082;2024-03-02T13:57:07;4.10;;;1.80;;
16099;SDS011;8154;50.830;12.082;2024-03-02T13:59:44;3.60;;;1.88;;
16099;SDS011;8154;50.830;12.082;2024-03-02T14:02:14;3.83;;;1.80;;
16099;SDS011;8154;50.830;12.082;2024-03-02T14:04:44;3.92;;;1.80;;
16099;SDS011;8154;50.830;12.082;2024-03-02T14:07:13;3.67;;;1.80;;
16099;SDS011;8154;50.830;12.082;2024-03-02T14:09:40;3.42;;;1.50;;
16099;SDS011;8154;50.830;12.082;2024-03-02T14:12:07;3.40;;;1.77;;
16099;SDS011;8154;50.830;12.082;2024-03-02T14:14:33;3.30;;;1.60;;
16099;SDS011;8154;50.830;12.082;2024-03-02T14:16:59;4.00;;;1.80;;
16099;SDS011;8154;50.830;12.082;2024-03-02T14:19:31;3.13;;;1.50;;
16099;SDS011;8154;50.830;12.082;2024-03-02T14:22:00;3.35;;;1.52;;
16099;SDS011;8154;50.830;12.082;2024-03-02T14:24:27;3.35;;;1.65;;
16099;SDS011;8154;50.830;12.082;2024-03-02T14:26:57;3.53;;;1.83;;
16099;SDS011;8154;50.830;12.082;2024-03-02T14:29:29;3.55;;;1.80;;
16099;SDS011;8154;50.830;12.082;2024-03-02T14:31:58;3.20;;;1.60;;
16099;SDS011;8154;50.830;12.082;2024-03-02T14:34:24;2.92;;;1.60;;
16099;SDS011;8154;50.830;12.082;2024-03-02T14:36:50;3.63;;;1.77;;
16099;SDS011;8154;50.830;12.082;2024-03-02T14:39:16;3.60;;;1.60;;
16099;SDS011;8154;50.830;12.082;2024-03-02T14:41:43;3.50;;;1.70;;
16099;SDS011;8154;50.830;12.082;2024-03-02T14:44:11;2.80;;;1.58;;
16099;SDS011;8154;50.830;12.082;2024-03-02T14:46:41;4.13;;;1.90;;
16099;SDS011;8154;50.830;12.082;2024-03-02T14:49:10;3.28;;;1.60;;
16099;SDS011;8154;50.830;12.082;2024-03-02T14:51:40;2.77;;;1.40;;
16099;SDS011;8154;50.830;12.082;2024-03-02T14:54:06;3.45;;;1.55;;
16099;SDS011;8154;50.830;12.082;2024-03-02T14:56:32;3.20;;;1.50;;
16099;SDS011;8154;50.830;12.082;2024-03-02T14:58:58;3.33;;;1.40;;
16099;SDS011;8154;50.830;12.082;2024-03-02T15:01:24;2.80;;;1.50;;
16099;SDS011;8154;50.830;12.082;2024-03-02T15:03:51;2.92;;;1.50;;